createdAt,value
2024-03-16T00:02:04.826Z,100976.16
2024-03-16T00:04:31.431Z,100978.75
2024-03-16T00:06:59.211Z,100976.22
2024-03-16T00:09:26.156Z,100977.97
2024-03-16T00:11:52.907Z,100979.78
2024-03-16T00:14:19.344Z,100986.63
2024-03-16T00:16:45.830Z,100972.94
2024-03-16T00:19:12.486Z,100978.09
2024-03-16T00:21:39.014Z,100984.06
2024-03-16T00:24:05.838Z,100992.63
2024-03-16T00:26:32.332Z,100988.38
2024-03-16T00:28:59.518Z,100990.16
2024-03-16T00:31:26.087Z,100998.72
2024-03-16T00:33:52.608Z,100997.03
2024-03-16T00:36:19.062Z,100992.75
2024-03-16T00:38:50.659Z,100995.44
2024-03-16T00:41:21.233Z,101005.78
2024-03-16T00:43:47.711Z,101001.63
2024-03-16T00:46:14.390Z,101009.47
2024-03-16T00:48:41.158Z,101019.19
2024-03-16T00:51:07.626Z,101016.84
2024-03-16T00:53:34.373Z,101023.91
2024-03-16T00:56:00.935Z,101024.88
2024-03-16T00:58:28.598Z,101026.63
2024-03-16T01:00:55.187Z,101030.94
2024-03-16T01:03:21.878Z,101033.63
2024-03-16T01:05:57.491Z,101038.75
2024-03-16T01:08:24.169Z,101038.88
2024-03-16T01:10:55.965Z,101038.13
2024-03-16T01:13:23.785Z,101039.81
2024-03-16T01:15:51.111Z,101051.84
2024-03-16T01:18:17.737Z,101047.63
2024-03-16T01:20:45.181Z,101040.03
2024-03-16T01:23:14.210Z,101054.63
2024-03-16T01:25:41.239Z,101063.19
2024-03-16T01:28:07.925Z,101063.19
2024-03-16T01:30:34.589Z,101069.25
2024-03-16T01:33:01.375Z,101072.66
2024-03-16T01:35:27.891Z,101070.13
2024-03-16T01:37:54.380Z,101077.84
2024-03-16T01:40:25.947Z,101086.41
2024-03-16T01:42:55.856Z,101084.88
2024-03-16T01:45:22.599Z,101087.63
2024-03-16T01:47:49.253Z,101089.31
2024-03-16T01:50:24.861Z,101095.44
2024-03-16T01:52:51.460Z,101097.19
2024-03-16T01:55:18.592Z,101101.56
2024-03-16T01:57:45.778Z,101112.69
2024-03-16T02:00:13.288Z,101114.53
2024-03-16T02:02:40.455Z,101115.50
2024-03-16T02:05:08.571Z,101119.13
2024-03-16T02:07:38.177Z,101133.81
2024-03-16T02:10:06.911Z,101137.38
2024-03-16T02:12:33.599Z,101135.16
2024-03-16T02:15:00.829Z,101134.59
2024-03-16T02:17:28.625Z,101147.53
2024-03-16T02:19:55.481Z,101144.25
2024-03-16T02:22:22.009Z,101143.47
2024-03-16T02:24:48.689Z,101151.25
2024-03-16T02:27:16.025Z,101159.78
2024-03-16T02:29:43.401Z,101162.44
2024-03-16T02:32:11.125Z,101167.75
2024-03-16T02:34:38.531Z,101170.47
2024-03-16T02:37:06.053Z,101180.88
2024-03-16T02:39:35.223Z,101174.16
2024-03-16T02:42:03.610Z,101178.47
2024-03-16T02:44:31.135Z,101179.41
2024-03-16T02:46:58.279Z,101190.53
2024-03-16T02:49:25.297Z,101181.09
2024-03-16T02:51:51.858Z,101178.66
2024-03-16T02:54:19.068Z,101189.69
2024-03-16T02:56:46.478Z,101193.91
2024-03-16T02:59:14.130Z,101197.50
2024-03-16T03:01:40.899Z,101201.88
2024-03-16T03:04:08.720Z,101205.28
2024-03-16T03:06:35.673Z,101211.34
2024-03-16T03:09:02.555Z,101219.00
2024-03-16T03:11:29.328Z,101224.97
2024-03-16T03:13:56.399Z,101231.81
2024-03-16T03:16:25.102Z,101238.72
2024-03-16T03:18:52.334Z,101239.63
2024-03-16T03:21:19.014Z,101252.53
2024-03-16T03:23:46.072Z,101247.59
2024-03-16T03:26:12.645Z,101254.56
2024-03-16T03:28:39.175Z,101261.47
2024-03-16T03:31:07.685Z,101270.06
2024-03-16T03:33:34.925Z,101280.38
2024-03-16T03:36:03.841Z,101283.06
2024-03-16T03:38:31.216Z,101285.66
2024-03-16T03:40:59.073Z,101282.22
2024-03-16T03:43:25.972Z,101293.47
2024-03-16T03:45:58.578Z,101299.44
2024-03-16T03:48:25.220Z,101294.44
2024-03-16T03:50:57.547Z,101297.00
2024-03-16T03:53:26.073Z,101305.53
2024-03-16T03:55:52.685Z,101314.94
2024-03-16T03:58:22.917Z,101315.84
2024-03-16T04:00:50.607Z,101329.47
2024-03-16T04:03:17.414Z,101336.34
2024-03-16T04:05:46.761Z,101332.16
2024-03-16T04:08:13.268Z,101342.44
2024-03-16T04:10:40.309Z,101342.44
2024-03-16T04:13:06.848Z,101344.22
2024-03-16T04:15:33.554Z,101335.75
2024-03-16T04:18:00.242Z,101351.97
2024-03-16T04:20:26.890Z,101352.00
2024-03-16T04:22:53.428Z,101358.84
2024-03-16T04:25:20.050Z,101368.25
2024-03-16T04:27:46.645Z,101365.66
2024-03-16T04:30:14.572Z,101379.28
2024-03-16T04:32:41.201Z,101386.97
2024-03-16T04:35:08.614Z,101400.63
2024-03-16T04:37:35.180Z,101401.50
2024-03-16T04:40:04.673Z,101410.91
2024-03-16T04:42:31.768Z,101411.78
2024-03-16T04:44:58.334Z,101416.94
2024-03-16T04:47:24.906Z,101428.16
2024-03-16T04:49:51.449Z,101423.06
2024-03-16T04:52:18.123Z,101436.81
2024-03-16T04:54:44.719Z,101439.41
2024-03-16T04:57:11.161Z,101444.59
2024-03-16T04:59:37.700Z,101447.19
2024-03-16T05:02:04.404Z,101450.63
2024-03-16T05:04:30.969Z,101451.53
2024-03-16T05:06:57.451Z,101454.91
2024-03-16T05:09:24.495Z,101455.78
2024-03-16T05:11:51.104Z,101473.78
2024-03-16T05:14:17.642Z,101478.09
2024-03-16T05:16:44.151Z,101483.22
2024-03-16T05:19:10.762Z,101480.69
2024-03-16T05:21:37.344Z,101485.03
2024-03-16T05:24:07.019Z,101491.91
2024-03-16T05:26:35.256Z,101501.31
2024-03-16T05:29:01.856Z,101501.38
2024-03-16T05:31:28.609Z,101511.66
2024-03-16T05:33:55.267Z,101513.34
2024-03-16T05:36:21.757Z,101522.69
2024-03-16T05:38:48.213Z,101521.06
2024-03-16T05:41:15.266Z,101530.41
2024-03-16T05:43:45.605Z,101533.88
2024-03-16T05:46:12.562Z,101554.28
2024-03-16T05:48:39.345Z,101559.44
2024-03-16T05:51:08.661Z,101562.00
2024-03-16T05:53:35.194Z,101562.88
2024-03-16T05:56:01.842Z,101569.72
2024-03-16T05:58:29.812Z,101577.38
2024-03-16T06:00:57.864Z,101581.66
2024-03-16T06:03:27.299Z,101586.00
2024-03-16T06:05:54.031Z,101601.41
2024-03-16T06:08:20.589Z,101602.34
2024-03-16T06:10:48.886Z,101616.00
2024-03-16T06:13:16.387Z,101627.94
2024-03-16T06:15:43.191Z,101636.50
2024-03-16T06:18:09.847Z,101640.75
2024-03-16T06:20:36.373Z,101658.63
2024-03-16T06:23:02.862Z,101655.22
2024-03-16T06:25:30.632Z,101656.09
2024-03-16T06:28:06.879Z,101660.34
2024-03-16T06:30:34.207Z,101664.59
2024-03-16T06:33:07.221Z,101679.06
2024-03-16T06:35:34.586Z,101680.75
2024-03-16T06:38:01.227Z,101682.44
2024-03-16T06:40:27.830Z,101685.84
2024-03-16T06:42:54.468Z,101690.16
2024-03-16T06:45:21.059Z,101690.16
2024-03-16T06:47:47.754Z,101695.25
2024-03-16T06:50:14.444Z,101703.72
2024-03-16T06:52:41.074Z,101713.94
2024-03-16T06:55:10.576Z,101715.66
2024-03-16T06:57:37.215Z,101720.75
2024-03-16T07:00:04.703Z,101733.53
2024-03-16T07:02:31.665Z,101738.66
2024-03-16T07:04:58.252Z,101751.44
2024-03-16T07:07:24.739Z,101754.03
2024-03-16T07:09:51.373Z,101760.81
2024-03-16T07:12:18.326Z,101769.34
2024-03-16T07:14:44.981Z,101773.59
2024-03-16T07:17:11.455Z,101771.84
2024-03-16T07:19:37.969Z,101782.88
2024-03-16T07:22:07.272Z,101794.75
2024-03-16T07:24:34.510Z,101797.25
2024-03-16T07:27:01.027Z,101798.91
2024-03-16T07:29:27.446Z,101805.69
2024-03-16T07:31:54.056Z,101816.81
2024-03-16T07:34:20.631Z,101820.25
2024-03-16T07:36:47.205Z,101810.88
2024-03-16T07:39:13.754Z,101816.84
2024-03-16T07:41:40.670Z,101817.66
2024-03-16T07:44:07.249Z,101822.75
2024-03-16T07:46:33.737Z,101842.31
2024-03-16T07:49:00.668Z,101834.59
2024-03-16T07:51:30.507Z,101840.47
2024-03-16T07:53:57.262Z,101837.84
2024-03-16T07:56:23.733Z,101853.09
2024-03-16T07:58:50.593Z,101851.34
2024-03-16T08:01:17.487Z,101859.91
2024-03-16T08:03:45.072Z,101865.06
2024-03-16T08:06:12.197Z,101868.47
2024-03-16T08:08:41.100Z,101876.22
2024-03-16T08:11:08.574Z,101885.63
2024-03-16T08:13:38.060Z,101898.50
2024-03-16T08:16:05.178Z,101901.94
2024-03-16T08:18:31.642Z,101899.41
2024-03-16T08:21:01.013Z,101905.28
2024-03-16T08:23:29.221Z,101906.19
2024-03-16T08:25:55.822Z,101906.28
2024-03-16T08:28:23.231Z,101913.94
2024-03-16T08:30:50.003Z,101913.13
2024-03-16T08:33:16.611Z,101921.66
2024-03-16T08:35:43.290Z,101927.59
2024-03-16T08:38:10.370Z,101930.13
2024-03-16T08:40:36.963Z,101934.34
2024-03-16T08:43:03.978Z,101936.78
2024-03-16T08:45:31.977Z,101933.25
2024-03-16T08:47:58.601Z,101939.25
2024-03-16T08:50:25.133Z,101947.69
2024-03-16T08:52:51.748Z,101947.63
2024-03-16T08:55:19.240Z,101946.69
2024-03-16T08:57:46.384Z,101947.44
2024-03-16T09:00:16.788Z,101950.84
2024-03-16T09:02:43.958Z,101957.59
2024-03-16T09:05:10.525Z,101952.47
2024-03-16T09:07:39.553Z,101954.84
2024-03-16T09:10:12.307Z,101958.13
2024-03-16T09:12:39.300Z,101961.47
2024-03-16T09:15:12.544Z,101970.84
2024-03-16T09:17:39.646Z,101976.84
2024-03-16T09:20:11.010Z,101977.59
2024-03-16T09:22:38.368Z,101984.44
2024-03-16T09:25:07.240Z,101992.03
2024-03-16T09:27:35.113Z,102001.31
2024-03-16T09:30:02.557Z,101998.72
2024-03-16T09:32:29.051Z,101995.28
2024-03-16T09:34:55.516Z,102007.19
2024-03-16T09:37:22.681Z,102003.75
2024-03-16T09:39:49.353Z,102007.94
2024-03-16T09:42:15.908Z,102009.47
